sensor_id;sensor_type;location;lat;lon;timestamp;pressure;altitude;pressure_sealevel;temperature;humidity
27304;BME280;14791;52.392;13.092;2023-07-28T00:00:26;99833.53;;;22.24;59.74
27304;BME280;14791;52.392;13.092;2023-07-28T00:02:55;99837.08;;;22.25;59.75
27304;BME280;14791;52.392;13.092;2023-07-28T00:05:24;99835.38;;;22.24;59.80
27304;BME280;14791;52.392;13.092;2023-07-28T00:07:53;99829.94;;;22.24;59.89
27304;BME280;14791;52.392;13.092;2023-07-28T00:10:22;99831.64;;;22.25;59.91
27304;BME280;14791;52.392;13.092;2023-07-28T00:12:51;99836.24;;;22.24;59.94
27304;BME280;14791;52.392;13.092;2023-07-28T00:15:20;99818.87;;;22.25;59.98
27304;BME280;14791;52.392;13.092;2023-07-28T00:17:49;99822.44;;;22.26;59.98
27304;BME280;14791;52.392;13.092;2023-07-28T00:20:18;99825.50;;;22.27;59.95
27304;BME280;14791;52.392;13.092;2023-07-28T00:22:47;99811.37;;;22.27;59.97
27304;BME280;14791;52.392;13.092;2023-07-28T00:25:16;99815.77;;;22.28;60.03
27304;BME280;14791;52.392;13.092;2023-07-28T00:27:45;99816.11;;;22.29;60.01
27304;BME280;14791;52.392;13.092;2023-07-28T00:30:14;99822.91;;;22.29;60.08
27304;BME280;14791;52.392;13.092;2023-07-28T00:32:42;99816.23;;;22.32;60.07
27304;BME280;14791;52.392;13.092;2023-07-28T00:35:11;99815.19;;;22.33;60.14
27304;BME280;14791;52.392;13.092;2023-07-28T00:37:40;99814.17;;;22.34;60.13
27304;BME280;14791;52.392;13.092;2023-07-28T00:40:09;99820.45;;;22.35;60.12
27304;BME280;14791;52.392;13.092;2023-07-28T00:42:40;99827.03;;;22.36;60.11
27304;BME280;14791;52.392;13.092;2023-07-28T00:45:09;99818.69;;;22.38;60.13
27304;BME280;14791;52.392;13.092;2023-07-28T00:47:38;99822.59;;;22.39;60.12
27304;BME280;14791;52.392;13.092;2023-07-28T00:50:09;99823.42;;;22.40;60.14
27304;BME280;14791;52.392;13.092;2023-07-28T00:52:41;99823.42;;;22.40;60.18
27304;BME280;14791;52.392;13.092;2023-07-28T00:55:10;99819.66;;;22.41;60.16
27304;BME280;14791;52.392;13.092;2023-07-28T00:57:39;99811.83;;;22.42;60.17
27304;BME280;14791;52.392;13.092;2023-07-28T01:00:09;99817.59;;;22.43;60.19
27304;BME280;14791;52.392;13.092;2023-07-28T01:02:38;99825.22;;;22.43;60.22
27304;BME280;14791;52.392;13.092;2023-07-28T01:05:08;99816.56;;;22.44;60.24
27304;BME280;14791;52.392;13.092;2023-07-28T01:07:57;99821.30;;;22.46;60.25
27304;BME280;14791;52.392;13.092;2023-07-28T01:10:30;99811.25;;;22.46;60.25
27304;BME280;14791;52.392;13.092;2023-07-28T01:13:00;99814.99;;;22.45;60.27
27304;BME280;14791;52.392;13.092;2023-07-28T01:15:29;99806.00;;;22.45;60.37
27304;BME280;14791;52.392;13.092;2023-07-28T01:17:58;99808.72;;;22.45;60.40
27304;BME280;14791;52.392;13.092;2023-07-28T01:20:29;99800.38;;;22.46;60.48
27304;BME280;14791;52.392;13.092;2023-07-28T01:23:24;99806.25;;;22.50;60.44
27304;BME280;14791;52.392;13.092;2023-07-28T01:26:04;99795.36;;;22.50;60.45
27304;BME280;14791;52.392;13.092;2023-07-28T01:28:34;99804.23;;;22.48;60.50
27304;BME280;14791;52.392;13.092;2023-07-28T01:31:04;99802.25;;;22.46;60.54
27304;BME280;14791;52.392;13.092;2023-07-28T01:33:33;99795.77;;;22.47;60.56
27304;BME280;14791;52.392;13.092;2023-07-28T01:36:03;99788.44;;;22.47;60.63
27304;BME280;14791;52.392;13.092;2023-07-28T01:38:32;99789.09;;;22.49;60.60
27304;BME280;14791;52.392;13.092;2023-07-28T01:41:01;99797.56;;;22.50;60.67
27304;BME280;14791;52.392;13.092;2023-07-28T01:43:30;99786.84;;;22.53;60.69
27304;BME280;14791;52.392;13.092;2023-07-28T01:45:59;99794.47;;;22.54;60.68
27304;BME280;14791;52.392;13.092;2023-07-28T01:48:28;99794.66;;;22.52;60.74
27304;BME280;14791;52.392;13.092;2023-07-28T01:50:56;99798.43;;;22.51;60.85
27304;BME280;14791;52.392;13.092;2023-07-28T01:53:25;99797.25;;;22.49;60.92
27304;BME280;14791;52.392;13.092;2023-07-28T01:55:54;99790.63;;;22.48;60.94
27304;BME280;14791;52.392;13.092;2023-07-28T01:58:23;99794.41;;;22.47;61.01
27304;BME280;14791;52.392;13.092;2023-07-28T02:00:52;99796.81;;;22.46;61.15
27304;BME280;14791;52.392;13.092;2023-07-28T02:03:21;99795.11;;;22.45;61.17
27304;BME280;14791;52.392;13.092;2023-07-28T02:05:51;99796.81;;;22.46;61.22
27304;BME280;14791;52.392;13.092;2023-07-28T02:08:20;99798.02;;;22.43;61.28
27304;BME280;14791;52.392;13.092;2023-07-28T02:10:49;99801.61;;;22.44;61.30
27304;BME280;14791;52.392;13.092;2023-07-28T02:13:18;99803.45;;;22.43;61.39
27304;BME280;14791;52.392;13.092;2023-07-28T02:15:47;99805.69;;;22.44;61.44
27304;BME280;14791;52.392;13.092;2023-07-28T02:18:16;99811.13;;;22.44;61.48
27304;BME280;14791;52.392;13.092;2023-07-28T02:20:47;99799.90;;;22.43;61.54
27304;BME280;14791;52.392;13.092;2023-07-28T02:23:15;99806.17;;;22.43;61.58
27304;BME280;14791;52.392;13.092;2023-07-28T02:25:44;99798.02;;;22.43;61.64
27304;BME280;14791;52.392;13.092;2023-07-28T02:28:13;99802.97;;;22.44;61.67
27304;BME280;14791;52.392;13.092;2023-07-28T02:30:42;99793.75;;;22.45;61.70
27304;BME280;14791;52.392;13.092;2023-07-28T02:33:11;99804.63;;;22.45;61.72
27304;BME280;14791;52.392;13.092;2023-07-28T02:35:40;99795.45;;;22.46;61.65
27304;BME280;14791;52.392;13.092;2023-07-28T02:38:09;99795.30;;;22.43;61.73
27304;BME280;14791;52.392;13.092;2023-07-28T02:40:38;99783.58;;;22.43;61.67
27304;BME280;14791;52.392;13.092;2023-07-28T02:43:07;99784.28;;;22.41;61.78
27304;BME280;14791;52.392;13.092;2023-07-28T02:45:36;99782.62;;;22.40;61.84
27304;BME280;14791;52.392;13.092;2023-07-28T02:48:06;99781.26;;;22.40;61.89
27304;BME280;14791;52.392;13.092;2023-07-28T02:50:35;99792.14;;;22.40;61.94
27304;BME280;14791;52.392;13.092;2023-07-28T02:53:04;99780.95;;;22.39;61.95
27304;BME280;14791;52.392;13.092;2023-07-28T02:55:33;99784.69;;;22.38;62.00
27304;BME280;14791;52.392;13.092;2023-07-28T02:58:03;99778.23;;;22.39;62.07
27304;BME280;14791;52.392;13.092;2023-07-28T03:00:33;99776.66;;;22.40;62.01
27304;BME280;14791;52.392;13.092;2023-07-28T03:03:02;99777.83;;;22.42;61.99
27304;BME280;14791;52.392;13.092;2023-07-28T03:05:34;99786.64;;;22.44;61.93
27304;BME280;14791;52.392;13.092;2023-07-28T03:08:07;99795.52;;;22.42;61.96
27304;BME280;14791;52.392;13.092;2023-07-28T03:10:36;99797.89;;;22.41;62.00
27304;BME280;14791;52.392;13.092;2023-07-28T03:13:05;99799.98;;;22.39;62.02
27304;BME280;14791;52.392;13.092;2023-07-28T03:15:34;99808.45;;;22.40;62.02
27304;BME280;14791;52.392;13.092;2023-07-28T03:18:03;99804.38;;;22.40;62.07
27304;BME280;14791;52.392;13.092;2023-07-28T03:20:32;99801.97;;;22.41;62.10
27304;BME280;14791;52.392;13.092;2023-07-28T03:23:01;99807.54;;;22.43;62.06
27304;BME280;14791;52.392;13.092;2023-07-28T03:25:31;99812.48;;;22.44;62.06
27304;BME280;14791;52.392;13.092;2023-07-28T03:28:00;99812.80;;;22.45;62.07
27304;BME280;14791;52.392;13.092;2023-07-28T03:30:29;99814.50;;;22.46;62.06
27304;BME280;14791;52.392;13.092;2023-07-28T03:32:58;99813.45;;;22.47;62.03
27304;BME280;14791;52.392;13.092;2023-07-28T03:35:27;99811.56;;;22.47;62.03
27304;BME280;14791;52.392;13.092;2023-07-28T03:38:01;99818.19;;;22.49;61.96
27304;BME280;14791;52.392;13.092;2023-07-28T03:40:31;99823.63;;;22.49;61.97
27304;BME280;14791;52.392;13.092;2023-07-28T03:43:00;99825.81;;;22.49;62.00
27304;BME280;14791;52.392;13.092;2023-07-28T03:45:30;99822.91;;;22.51;61.99
27304;BME280;14791;52.392;13.092;2023-07-28T03:47:58;99827.30;;;22.52;62.00
27304;BME280;14791;52.392;13.092;2023-07-28T03:50:27;99830.68;;;22.54;61.96
27304;BME280;14791;52.392;13.092;2023-07-28T03:52:56;99834.77;;;22.54;61.92
27304;BME280;14791;52.392;13.092;2023-07-28T03:55:25;99825.05;;;22.56;61.90
27304;BME280;14791;52.392;13.092;2023-07-28T03:57:54;99829.63;;;22.55;61.89
27304;BME280;14791;52.392;13.092;2023-07-28T04:00:23;99830.68;;;22.54;61.88
27304;BME280;14791;52.392;13.092;2023-07-28T04:02:52;99833.09;;;22.53;61.91
27304;BME280;14791;52.392;13.092;2023-07-28T04:05:21;99828.67;;;22.52;61.99
27304;BME280;14791;52.392;13.092;2023-07-28T04:07:50;99831.57;;;22.50;62.07
27304;BME280;14791;52.392;13.092;2023-07-28T04:10:19;99833.33;;;22.47;62.14
27304;BME280;14791;52.392;13.092;2023-07-28T04:12:48;99839.30;;;22.47;62.21
27304;BME280;14791;52.392;13.092;2023-07-28T04:15:17;99845.78;;;22.46;62.27
27304;BME280;14791;52.392;13.092;2023-07-28T04:17:46;99845.97;;;22.44;62.33
27304;BME280;14791;52.392;13.092;2023-07-28T04:20:15;99842.91;;;22.43;62.41
27304;BME280;14791;52.392;13.092;2023-07-28T04:22:44;99843.43;;;22.43;62.50
27304;BME280;14791;52.392;13.092;2023-07-28T04:25:14;99839.04;;;22.42;62.54
27304;BME280;14791;52.392;13.092;2023-07-28T04:27:44;99841.11;;;22.40;62.65
27304;BME280;14791;52.392;13.092;2023-07-28T04:30:13;99847.59;;;22.39;62.67
27304;BME280;14791;52.392;13.092;2023-07-28T04:32:42;99844.53;;;22.38;62.79
27304;BME280;14791;52.392;13.092;2023-07-28T04:35:13;99841.81;;;22.38;62.89
27304;BME280;14791;52.392;13.092;2023-07-28T04:37:44;99843.17;;;22.38;62.89
27304;BME280;14791;52.392;13.092;2023-07-28T04:40:14;99839.09;;;22.38;62.98
27304;BME280;14791;52.392;13.092;2023-07-28T04:42:43;99835.02;;;22.38;62.99
27304;BME280;14791;52.392;13.092;2023-07-28T04:45:13;99835.02;;;22.38;63.05
27304;BME280;14791;52.392;13.092;2023-07-28T04:47:42;99833.47;;;22.39;62.99
27304;BME280;14791;52.392;13.092;2023-07-28T04:50:11;99840.80;;;22.39;63.00
27304;BME280;14791;52.392;13.092;2023-07-28T04:52:59;99838.91;;;22.39;63.04
27304;BME280;14791;52.392;13.092;2023-07-28T04:55:29;99837.08;;;22.36;63.21
27304;BME280;14791;52.392;13.092;2023-07-28T04:57:59;99845.58;;;22.37;63.19
27304;BME280;14791;52.392;13.092;2023-07-28T05:00:29;99841.16;;;22.36;63.12
27304;BME280;14791;52.392;13.092;2023-07-28T05:02:58;99841.50;;;22.37;63.14
27304;BME280;14791;52.392;13.092;2023-07-28T05:05:29;99840.45;;;22.38;63.15
27304;BME280;14791;52.392;13.092;2023-07-28T05:07:58;99843.52;;;22.39;63.24
27304;BME280;14791;52.392;13.092;2023-07-28T05:10:27;99844.66;;;22.40;63.29
27304;BME280;14791;52.392;13.092;2023-07-28T05:12:57;99848.87;;;22.43;63.29
27304;BME280;14791;52.392;13.092;2023-07-28T05:15:27;99846.63;;;22.46;63.37
27304;BME280;14791;52.392;13.092;2023-07-28T05:17:56;99851.36;;;22.48;63.34
27304;BME280;14791;52.392;13.092;2023-07-28T05:20:42;99852.84;;;22.51;63.37
27304;BME280;14791;52.392;13.092;2023-07-28T05:23:12;99856.41;;;22.51;63.43
27304;BME280;14791;52.392;13.092;2023-07-28T05:25:41;99860.61;;;22.54;63.41
27304;BME280;14791;52.392;13.092;2023-07-28T05:28:10;99865.66;;;22.57;63.29
27304;BME280;14791;52.392;13.092;2023-07-28T05:30:40;99873.45;;;22.60;63.24
27304;BME280;14791;52.392;13.092;2023-07-28T05:33:09;99871.05;;;22.61;63.12
27304;BME280;14791;52.392;13.092;2023-07-28T05:35:46;99871.17;;;22.64;62.95
27304;BME280;14791;52.392;13.092;2023-07-28T05:38:15;99867.62;;;22.63;63.08
27304;BME280;14791;52.392;13.092;2023-07-28T05:40:44;99865.55;;;22.65;63.09
27304;BME280;14791;52.392;13.092;2023-07-28T05:43:13;99863.97;;;22.67;63.04
27304;BME280;14791;52.392;13.092;2023-07-28T05:45:46;99868.52;;;22.70;63.06
27304;BME280;14791;52.392;13.092;2023-07-28T05:48:16;99869.17;;;22.72;63.10
27304;BME280;14791;52.392;13.092;2023-07-28T05:50:45;99866.05;;;22.76;63.18
27304;BME280;14791;52.392;13.092;2023-07-28T05:53:14;99871.10;;;22.79;63.14
27304;BME280;14791;52.392;13.092;2023-07-28T05:55:43;99875.12;;;22.83;62.95
27304;BME280;14791;52.392;13.092;2023-07-28T05:58:12;99867.27;;;22.84;62.78
27304;BME280;14791;52.392;13.092;2023-07-28T06:00:41;99868.63;;;22.84;62.67
27304;BME280;14791;52.392;13.092;2023-07-28T06:03:12;99875.78;;;22.85;62.80
27304;BME280;14791;52.392;13.092;2023-07-28T06:05:58;99872.01;;;22.86;62.77
27304;BME280;14791;52.392;13.092;2023-07-28T06:08:26;99875.44;;;22.84;62.82
27304;BME280;14791;52.392;13.092;2023-07-28T06:10:56;99878.50;;;22.85;62.87
27304;BME280;14791;52.392;13.092;2023-07-28T06:13:25;99882.89;;;22.86;62.84
27304;BME280;14791;52.392;13.092;2023-07-28T06:15:54;99895.09;;;22.90;62.88
27304;BME280;14791;52.392;13.092;2023-07-28T06:18:25;99891.97;;;22.93;62.93
27304;BME280;14791;52.392;13.092;2023-07-28T06:20:55;99897.70;;;22.98;63.06
27304;BME280;14791;52.392;13.092;2023-07-28T06:23:24;99918.71;;;23.04;62.99
27304;BME280;14791;52.392;13.092;2023-07-28T06:25:54;99917.59;;;23.09;62.90
27304;BME280;14791;52.392;13.092;2023-07-28T06:28:24;99923.30;;;23.14;62.98
27304;BME280;14791;52.392;13.092;2023-07-28T06:30:56;99931.01;;;23.22;63.00
27304;BME280;14791;52.392;13.092;2023-07-28T06:33:28;99937.35;;;23.29;62.89
27304;BME280;14791;52.392;13.092;2023-07-28T06:35:57;99942.34;;;23.36;62.71
27304;BME280;14791;52.392;13.092;2023-07-28T06:38:26;99946.48;;;23.43;62.45
27304;BME280;14791;52.392;13.092;2023-07-28T06:40:55;99940.45;;;23.47;62.38
27304;BME280;14791;52.392;13.092;2023-07-28T06:43:24;99941.00;;;23.53;62.42
27304;BME280;14791;52.392;13.092;2023-07-28T06:45:55;99942.63;;;23.59;62.34
27304;BME280;14791;52.392;13.092;2023-07-28T06:48:24;99950.00;;;23.65;62.08
27304;BME280;14791;52.392;13.092;2023-07-28T06:50:53;99952.96;;;23.70;61.83
27304;BME280;14791;52.392;13.092;2023-07-28T06:53:22;99953.45;;;23.73;61.64
27304;BME280;14791;52.392;13.092;2023-07-28T06:55:51;99962.59;;;23.76;61.58
27304;BME280;14791;52.392;13.092;2023-07-28T06:58:21;99956.23;;;23.80;61.54
27304;BME280;14791;52.392;13.092;2023-07-28T07:00:50;99951.73;;;23.83;61.67
27304;BME280;14791;52.392;13.092;2023-07-28T07:03:19;99955.66;;;23.91;61.59
27304;BME280;14791;52.392;13.092;2023-07-28T07:05:48;99954.75;;;23.95;61.41
27304;BME280;14791;52.392;13.092;2023-07-28T07:08:17;99956.01;;;23.99;61.20
27304;BME280;14791;52.392;13.092;2023-07-28T07:10:50;99951.31;;;24.04;61.00
27304;BME280;14791;52.392;13.092;2023-07-28T07:13:19;99958.06;;;24.08;60.93
27304;BME280;14791;52.392;13.092;2023-07-28T07:15:48;99958.17;;;24.10;60.86
27304;BME280;14791;52.392;13.092;2023-07-28T07:18:17;99961.36;;;24.14;60.89
27304;BME280;14791;52.392;13.092;2023-07-28T07:20:46;99954.77;;;24.19;60.86
27304;BME280;14791;52.392;13.092;2023-07-28T07:23:15;99963.37;;;24.23;60.70
27304;BME280;14791;52.392;13.092;2023-07-28T07:25:44;99966.55;;;24.26;60.53
27304;BME280;14791;52.392;13.092;2023-07-28T07:28:13;99968.23;;;24.27;60.52
27304;BME280;14791;52.392;13.092;2023-07-28T07:30:42;99972.24;;;24.31;60.49
27304;BME280;14791;52.392;13.092;2023-07-28T07:33:11;99971.52;;;24.33;60.44
27304;BME280;14791;52.392;13.092;2023-07-28T07:35:40;99974.17;;;24.37;60.53
27304;BME280;14791;52.392;13.092;2023-07-28T07:38:09;99967.77;;;24.41;60.59
27304;BME280;14791;52.392;13.092;2023-07-28T07:40:38;99968.37;;;24.47;60.60
27304;BME280;14791;52.392;13.092;2023-07-28T07:43:07;99974.35;;;24.53;60.45
27304;BME280;14791;52.392;13.092;2023-07-28T07:45:36;99981.52;;;24.61;60.21
27304;BME280;14791;52.392;13.092;2023-07-28T07:48:05;99985.84;;;24.66;60.13
27304;BME280;14791;52.392;13.092;2023-07-28T07:50:34;99978.92;;;24.70;60.12
27304;BME280;14791;52.392;13.092;2023-07-28T07:53:03;99979.48;;;24.76;60.15
27304;BME280;14791;52.392;13.092;2023-07-28T07:55:32;99978.75;;;24.85;60.24
27304;BME280;14791;52.392;13.092;2023-07-28T07:58:01;99995.61;;;24.95;60.01
27304;BME280;14791;52.392;13.092;2023-07-28T08:00:31;99982.27;;;25.03;59.52
27304;BME280;14791;52.392;13.092;2023-07-28T08:03:00;99989.62;;;25.09;58.87
27304;BME280;14791;52.392;13.092;2023-07-28T08:05:29;99985.44;;;25.13;58.57
27304;BME280;14791;52.392;13.092;2023-07-28T08:07:58;99982.27;;;25.16;58.66
27304;BME280;14791;52.392;13.092;2023-07-28T08:10:27;99983.92;;;25.21;58.67
27304;BME280;14791;52.392;13.092;2023-07-28T08:12:56;99986.63;;;25.28;58.55
27304;BME280;14791;52.392;13.092;2023-07-28T08:15:25;99983.72;;;25.36;58.42
27304;BME280;14791;52.392;13.092;2023-07-28T08:17:54;100007.45;;;25.42;58.14
27304;BME280;14791;52.392;13.092;2023-07-28T08:20:23;99989.39;;;25.48;57.83
27304;BME280;14791;52.392;13.092;2023-07-28T08:22:53;99991.27;;;25.54;57.74
27304;BME280;14791;52.392;13.092;2023-07-28T08:25:22;100001.81;;;25.57;57.96
27304;BME280;14791;52.392;13.092;2023-07-28T08:27:51;100002.01;;;25.56;57.67
27304;BME280;14791;52.392;13.092;2023-07-28T08:30:20;99991.50;;;25.46;57.28
27304;BME280;14791;52.392;13.092;2023-07-28T08:32:49;100013.56;;;25.31;57.41
27304;BME280;14791;52.392;13.092;2023-07-28T08:35:18;100013.92;;;25.15;57.74
27304;BME280;14791;52.392;13.092;2023-07-28T08:37:47;100015.14;;;24.99;58.29
27304;BME280;14791;52.392;13.092;2023-07-28T08:40:16;100006.70;;;24.87;58.99
27304;BME280;14791;52.392;13.092;2023-07-28T08:42:47;100008.04;;;24.80;59.39
27304;BME280;14791;52.392;13.092;2023-07-28T08:45:18;100010.36;;;24.77;59.51
27304;BME280;14791;52.392;13.092;2023-07-28T08:47:48;100011.91;;;24.75;59.58
27304;BME280;14791;52.392;13.092;2023-07-28T08:50:17;100008.88;;;24.74;59.58
27304;BME280;14791;52.392;13.092;2023-07-28T08:52:46;100013.28;;;24.75;59.57
27304;BME280;14791;52.392;13.092;2023-07-28T08:55:15;100031.67;;;24.77;59.53
27304;BME280;14791;52.392;13.092;2023-07-28T08:57:51;100018.35;;;24.78;59.22
27304;BME280;14791;52.392;13.092;2023-07-28T09:00:21;100026.93;;;24.75;59.14
27304;BME280;14791;52.392;13.092;2023-07-28T09:02:52;100040.47;;;24.73;59.14
27304;BME280;14791;52.392;13.092;2023-07-28T09:05:21;100038.34;;;24.68;59.16
27304;BME280;14791;52.392;13.092;2023-07-28T09:07:51;100041.19;;;24.64;59.48
27304;BME280;14791;52.392;13.092;2023-07-28T09:10:20;100051.77;;;24.63;59.73
27304;BME280;14791;52.392;13.092;2023-07-28T09:12:50;100059.66;;;24.62;59.71
27304;BME280;14791;52.392;13.092;2023-07-28T09:15:19;100048.20;;;24.62;59.64
27304;BME280;14791;52.392;13.092;2023-07-28T09:17:48;100062.50;;;24.65;59.63
27304;BME280;14791;52.392;13.092;2023-07-28T09:20:17;100055.98;;;24.66;59.62
27304;BME280;14791;52.392;13.092;2023-07-28T09:22:46;100061.67;;;24.71;59.59
27304;BME280;14791;52.392;13.092;2023-07-28T09:25:17;100058.56;;;24.74;59.42
27304;BME280;14791;52.392;13.092;2023-07-28T09:27:51;100064.86;;;24.74;59.43
27304;BME280;14791;52.392;13.092;2023-07-28T09:30:21;100070.84;;;24.74;59.29
27304;BME280;14791;52.392;13.092;2023-07-28T09:32:52;100073.46;;;24.71;59.38
27304;BME280;14791;52.392;13.092;2023-07-28T09:35:23;100076.58;;;24.68;59.38
27304;BME280;14791;52.392;13.092;2023-07-28T09:37:52;100069.28;;;24.58;59.62
27304;BME280;14791;52.392;13.092;2023-07-28T09:40:22;100068.41;;;24.51;59.88
27304;BME280;14791;52.392;13.092;2023-07-28T09:42:51;100071.59;;;24.44;60.21
27304;BME280;14791;52.392;13.092;2023-07-28T09:45:22;100073.44;;;24.36;60.51
27304;BME280;14791;52.392;13.092;2023-07-28T09:47:53;100070.16;;;24.30;60.58
27304;BME280;14791;52.392;13.092;2023-07-28T09:50:24;100075.69;;;24.26;60.98
27304;BME280;14791;52.392;13.092;2023-07-28T09:52:58;100078.83;;;24.23;61.50
27304;BME280;14791;52.392;13.092;2023-07-28T09:55:28;100067.39;;;24.24;61.85
27304;BME280;14791;52.392;13.092;2023-07-28T09:57:58;100079.07;;;24.28;61.99
27304;BME280;14791;52.392;13.092;2023-07-28T10:00:29;100070.28;;;24.33;62.20
27304;BME280;14791;52.392;13.092;2023-07-28T10:02:58;100069.27;;;24.40;62.57
27304;BME280;14791;52.392;13.092;2023-07-28T10:05:29;100059.91;;;24.50;62.53
27304;BME280;14791;52.392;13.092;2023-07-28T10:07:59;100073.30;;;24.62;62.39
27304;BME280;14791;52.392;13.092;2023-07-28T10:10:28;100078.81;;;24.75;62.42
27304;BME280;14791;52.392;13.092;2023-07-28T10:12:58;100073.08;;;24.88;62.16
27304;BME280;14791;52.392;13.092;2023-07-28T10:15:29;100076.94;;;25.00;62.04
27304;BME280;14791;52.392;13.092;2023-07-28T10:17:59;100069.30;;;25.13;61.59
27304;BME280;14791;52.392;13.092;2023-07-28T10:20:39;100069.57;;;25.24;61.20
27304;BME280;14791;52.392;13.092;2023-07-28T10:23:15;100067.37;;;25.37;61.04
27304;BME280;14791;52.392;13.092;2023-07-28T10:25:45;100069.70;;;25.47;60.77
27304;BME280;14791;52.392;13.092;2023-07-28T10:28:26;100077.20;;;25.62;60.96
27304;BME280;14791;52.392;13.092;2023-07-28T10:30:57;100067.53;;;25.80;60.44
27304;BME280;14791;52.392;13.092;2023-07-28T10:39:02;100065.62;;;26.27;58.43
27304;BME280;14791;52.392;13.092;2023-07-28T10:41:34;100080.34;;;26.39;57.76
27304;BME280;14791;52.392;13.092;2023-07-28T10:44:04;100070.07;;;26.50;57.10
27304;BME280;14791;52.392;13.092;2023-07-28T10:46:34;100069.45;;;26.62;56.48
27304;BME280;14791;52.392;13.092;2023-07-28T10:49:05;100073.81;;;26.76;56.10
27304;BME280;14791;52.392;13.092;2023-07-28T10:51:36;100079.34;;;26.92;55.67
27304;BME280;14791;52.392;13.092;2023-07-28T10:54:05;100084.24;;;27.06;55.33
27304;BME280;14791;52.392;13.092;2023-07-28T10:56:34;100075.52;;;27.22;55.24
27304;BME280;14791;52.392;13.092;2023-07-28T10:59:04;100085.55;;;27.42;55.08
27304;BME280;14791;52.392;13.092;2023-07-28T11:01:38;100078.99;;;27.58;54.38
27304;BME280;14791;52.392;13.092;2023-07-28T11:04:23;100101.98;;;27.73;53.64
27304;BME280;14791;52.392;13.092;2023-07-28T11:06:51;100079.45;;;27.81;52.67
27304;BME280;14791;52.392;13.092;2023-07-28T11:09:22;100089.89;;;27.81;52.38
27304;BME280;14791;52.392;13.092;2023-07-28T11:11:51;100087.59;;;27.85;52.46
27304;BME280;14791;52.392;13.092;2023-07-28T11:14:20;100083.31;;;27.89;52.55
27304;BME280;14791;52.392;13.092;2023-07-28T11:16:50;100077.31;;;27.98;52.49
27304;BME280;14791;52.392;13.092;2023-07-28T11:19:19;100084.27;;;28.10;52.45
27304;BME280;14791;52.392;13.092;2023-07-28T11:21:50;100082.47;;;28.23;52.15
27304;BME280;14791;52.392;13.092;2023-07-28T11:24:20;100083.09;;;28.34;51.62
27304;BME280;14791;52.392;13.092;2023-07-28T11:26:50;100081.42;;;28.42;51.09
27304;BME280;14791;52.392;13.092;2023-07-28T11:29:20;100083.00;;;28.47;50.53
27304;BME280;14791;52.392;13.092;2023-07-28T11:31:50;100084.05;;;28.46;50.08
27304;BME280;14791;52.392;13.092;2023-07-28T11:34:19;100084.20;;;28.51;50.13
27304;BME280;14791;52.392;13.092;2023-07-28T11:36:48;100081.61;;;28.56;49.76
27304;BME280;14791;52.392;13.092;2023-07-28T11:39:19;100087.86;;;28.63;49.49
27304;BME280;14791;52.392;13.092;2023-07-28T11:41:51;100088.34;;;28.70;49.45
27304;BME280;14791;52.392;13.092;2023-07-28T11:44:22;100089.02;;;28.74;49.29
27304;BME280;14791;52.392;13.092;2023-07-28T11:46:52;100084.22;;;28.79;49.43
27304;BME280;14791;52.392;13.092;2023-07-28T11:49:22;100094.88;;;28.87;49.44
27304;BME280;14791;52.392;13.092;2023-07-28T11:51:53;100097.63;;;28.96;49.13
27304;BME280;14791;52.392;13.092;2023-07-28T11:54:25;100096.56;;;29.07;49.02
27304;BME280;14791;52.392;13.092;2023-07-28T11:56:56;100097.16;;;29.18;48.65
27304;BME280;14791;52.392;13.092;2023-07-28T11:59:25;100106.48;;;29.26;48.32
27304;BME280;14791;52.392;13.092;2023-07-28T12:01:57;100117.61;;;29.31;48.43
27304;BME280;14791;52.392;13.092;2023-07-28T12:04:43;100137.02;;;29.27;49.96
27304;BME280;14791;52.392;13.092;2023-07-28T12:07:16;100123.73;;;28.96;52.96
27304;BME280;14791;52.392;13.092;2023-07-28T12:09:50;100124.49;;;28.48;54.85
27304;BME280;14791;52.392;13.092;2023-07-28T12:12:25;100126.71;;;27.98;56.59
27304;BME280;14791;52.392;13.092;2023-07-28T12:14:57;100123.21;;;27.53;58.14
27304;BME280;14791;52.392;13.092;2023-07-28T12:17:32;100129.83;;;27.16;59.46
27304;BME280;14791;52.392;13.092;2023-07-28T12:20:03;100137.97;;;26.84;60.24
27304;BME280;14791;52.392;13.092;2023-07-28T12:22:45;100143.73;;;26.56;61.04
27304;BME280;14791;52.392;13.092;2023-07-28T12:25:10;100154.78;;;26.32;61.61
27304;BME280;14791;52.392;13.092;2023-07-28T12:27:39;100161.11;;;26.13;62.29
27304;BME280;14791;52.392;13.092;2023-07-28T12:30:08;100165.29;;;25.95;62.53
27304;BME280;14791;52.392;13.092;2023-07-28T12:32:38;100169.98;;;25.77;62.85
27304;BME280;14791;52.392;13.092;2023-07-28T12:35:07;100177.52;;;25.62;63.56
27304;BME280;14791;52.392;13.092;2023-07-28T12:37:36;100171.83;;;25.50;64.12
27304;BME280;14791;52.392;13.092;2023-07-28T12:40:06;100167.25;;;25.40;64.50
27304;BME280;14791;52.392;13.092;2023-07-28T12:42:36;100169.99;;;25.33;64.57
27304;BME280;14791;52.392;13.092;2023-07-28T12:45:05;100173.61;;;25.23;64.74
27304;BME280;14791;52.392;13.092;2023-07-28T12:47:34;100184.16;;;25.15;64.89
27304;BME280;14791;52.392;13.092;2023-07-28T12:50:04;100174.56;;;25.09;65.23
27304;BME280;14791;52.392;13.092;2023-07-28T12:52:34;100182.00;;;25.04;65.38
27304;BME280;14791;52.392;13.092;2023-07-28T12:55:04;100180.09;;;24.98;65.70
27304;BME280;14791;52.392;13.092;2023-07-28T12:57:33;100185.94;;;24.95;65.65
27304;BME280;14791;52.392;13.092;2023-07-28T13:00:02;100190.98;;;24.91;66.08
27304;BME280;14791;52.392;13.092;2023-07-28T13:02:33;100196.97;;;24.91;66.49
27304;BME280;14791;52.392;13.092;2023-07-28T13:05:02;100199.17;;;24.91;66.63